createdAt,value
2023-05-25T00:10:01.982Z,12.40
2023-05-25T00:20:07.671Z,13.90
2023-05-25T00:30:11.681Z,12.10
2023-05-25T00:40:16.818Z,13.20
2023-05-25T00:50:35.270Z,11.10
2023-05-25T01:00:43.270Z,11.40
2023-05-25T01:10:50.313Z,12.30
2023-05-25T01:21:13.566Z,12.40
2023-05-25T01:31:23.716Z,12.20
2023-05-25T01:41:29.364Z,11.60
2023-05-25T01:51:50.023Z,12.10
2023-05-25T02:01:54.898Z,11.50
2023-05-25T02:11:58.725Z,11.30
2023-05-25T02:22:03.719Z,11.40
2023-05-25T02:32:07.633Z,12.20
2023-05-25T02:42:11.527Z,11.70
2023-05-25T02:52:15.632Z,11.40
2023-05-25T03:13:19.277Z,11.60
2023-05-25T03:23:23.969Z,12.40
2023-05-25T03:33:28.709Z,12.20
2023-05-25T03:43:32.573Z,12.40
2023-05-25T03:53:36.980Z,13.70
2023-05-25T04:03:41.301Z,14.60
2023-05-25T04:13:49.262Z,16.40
2023-05-25T04:23:52.878Z,16.90
2023-05-25T04:33:59.320Z,17.10
2023-05-25T04:44:11.385Z,17.50
2023-05-25T04:54:20.764Z,17.70
2023-05-25T05:04:25.933Z,18.10
2023-05-25T05:14:31.529Z,17.80
2023-05-25T05:24:36.364Z,16.10
2023-05-25T05:34:40.584Z,15.70
2023-05-25T05:44:57.736Z,15.40
2023-05-25T05:55:03.538Z,16.00
2023-05-25T06:05:08.098Z,14.30
2023-05-25T06:15:14.456Z,14.40
2023-05-25T06:25:20.565Z,13.80
2023-05-25T06:35:24.388Z,13.90
2023-05-25T06:45:30.716Z,13.50
2023-05-25T06:56:35.023Z,13.50
2023-05-25T07:06:40.846Z,12.00
2023-05-25T07:16:45.352Z,11.00
2023-05-25T07:26:54.457Z,10.90
2023-05-25T07:36:58.100Z,9.90
2023-05-25T07:47:01.955Z,9.10
2023-05-25T07:57:07.133Z,9.10
2023-05-25T08:07:11.736Z,8.80
2023-05-25T08:17:20.572Z,8.20
2023-05-25T08:27:24.188Z,11.00
2023-05-25T08:37:27.898Z,7.60
2023-05-25T08:47:34.025Z,8.10
2023-05-25T08:58:00.720Z,7.50
2023-05-25T09:08:11.618Z,7.40
2023-05-25T09:18:15.223Z,7.30
2023-05-25T09:28:27.046Z,7.20
2023-05-25T09:38:31.802Z,7.10
2023-05-25T09:48:36.561Z,7.20
2023-05-25T09:58:41.475Z,7.40
2023-05-25T10:08:46.021Z,7.50
2023-05-25T10:18:58.279Z,7.20
2023-05-25T10:29:04.802Z,7.20
2023-05-25T10:39:13.478Z,7.10
2023-05-25T10:49:37.676Z,7.30
2023-05-25T10:59:42.587Z,7.30
2023-05-25T11:09:58.503Z,6.50
2023-05-25T11:20:06.419Z,5.90
2023-05-25T11:30:12.802Z,5.90
2023-05-25T11:40:17.146Z,6.10
2023-05-25T11:50:22.858Z,5.60
2023-05-25T12:00:28.636Z,6.20
2023-05-25T12:10:32.389Z,6.10
2023-05-25T12:20:41.559Z,5.80
2023-05-25T12:30:47.861Z,6.00
2023-05-25T12:41:08.195Z,6.00
2023-05-25T12:51:12.422Z,5.90
2023-05-25T13:01:18.214Z,5.60
2023-05-25T13:11:22.136Z,5.40
2023-05-25T13:21:28.676Z,5.00
2023-05-25T13:31:32.616Z,4.90
2023-05-25T13:41:36.384Z,4.80
2023-05-25T13:51:41.842Z,4.70
2023-05-25T14:01:45.654Z,4.90
2023-05-25T14:11:49.401Z,5.00
2023-05-25T14:22:11.127Z,4.70
2023-05-25T14:32:19.530Z,4.80
2023-05-25T14:42:28.857Z,4.20
2023-05-25T14:52:32.662Z,4.50
2023-05-25T15:02:38.606Z,4.60
2023-05-25T15:12:44.767Z,4.40
2023-05-25T15:22:48.526Z,4.60
2023-05-25T15:32:52.213Z,4.30
2023-05-25T15:42:56.395Z,4.20
2023-05-25T15:53:02.214Z,4.10
2023-05-25T16:03:07.107Z,4.30
2023-05-25T16:13:10.852Z,4.30
2023-05-25T16:23:16.562Z,4.40
2023-05-25T16:33:20.187Z,4.40
2023-05-25T16:43:26.642Z,4.60
2023-05-25T16:53:30.386Z,4.20
2023-05-25T17:03:36.053Z,4.20
2023-05-25T17:13:40.072Z,4.10
2023-05-25T17:23:44.129Z,3.70
2023-05-25T17:33:48.101Z,3.70
2023-05-25T17:43:54.161Z,3.70
2023-05-25T17:53:59.192Z,3.80
2023-05-25T18:04:05.198Z,4.40
2023-05-25T18:14:08.894Z,4.30
2023-05-25T18:24:13.526Z,4.40
2023-05-25T18:34:17.579Z,4.40
2023-05-25T18:44:21.382Z,5.00
2023-05-25T18:54:28.327Z,4.50
2023-05-25T19:04:35.651Z,4.30
2023-05-25T19:14:39.238Z,4.00
2023-05-25T19:24:46.973Z,3.70
2023-05-25T19:34:53.213Z,3.70
2023-05-25T19:45:00.160Z,3.40
2023-05-25T19:55:04.271Z,3.90
2023-05-25T20:05:10.941Z,3.60
2023-05-25T20:15:14.689Z,3.30
2023-05-25T20:25:18.677Z,3.20
2023-05-25T20:35:24.378Z,3.10
2023-05-25T20:45:29.556Z,3.00
2023-05-25T20:55:33.369Z,3.00
2023-05-25T21:05:38.316Z,2.80
2023-05-25T21:15:44.454Z,2.70
2023-05-25T21:25:48.887Z,2.50
2023-05-25T21:35:54.444Z,2.60
2023-05-25T21:45:58.277Z,2.70
2023-05-25T21:56:02.109Z,2.70
2023-05-25T22:06:05.876Z,2.90
2023-05-25T22:16:13.165Z,2.90
2023-05-25T22:26:17.009Z,3.00
2023-05-25T22:36:20.668Z,3.00
2023-05-25T22:46:26.305Z,3.10
2023-05-25T22:56:30.582Z,3.20
2023-05-25T23:06:34.273Z,3.50
2023-05-25T23:16:41.786Z,3.40
2023-05-25T23:26:45.497Z,3.30
2023-05-25T23:36:49.066Z,3.60
2023-05-25T23:46:55.698Z,3.60
2023-05-25T23:56:59.511Z,3.70
